createdAt,value
2022-08-04T00:01:41.488Z,99661.41
2022-08-04T00:04:30.712Z,99662.47
2022-08-04T00:07:44.126Z,99668.03
2022-08-04T00:10:14.279Z,99662.88
2022-08-04T00:12:45.445Z,99663.72
2022-08-04T00:15:16.537Z,99656.94
2022-08-04T00:18:07.158Z,99666.25
2022-08-04T00:20:39.066Z,99662.94
2022-08-04T00:23:07.288Z,99669.28
2022-08-04T00:25:40.600Z,99667.41
2022-08-04T00:28:09.023Z,99665.31
2022-08-04T00:30:36.878Z,99664.66
2022-08-04T00:33:04.706Z,99662.16
2022-08-04T00:35:33.171Z,99653.34
2022-08-04T00:38:01.738Z,99665.94
2022-08-04T00:41:23.249Z,99659.88
2022-08-04T00:44:13.497Z,99674.66
2022-08-04T00:46:51.250Z,99668.13
2022-08-04T00:49:48.407Z,99679.50
2022-08-04T00:52:43.912Z,99670.03
2022-08-04T00:55:26.576Z,99677.84
2022-08-04T00:58:14.163Z,99672.16
2022-08-04T01:01:03.570Z,99676.81
2022-08-04T01:03:50.300Z,99679.53
2022-08-04T01:06:30.675Z,99682.69
2022-08-04T01:09:21.397Z,99677.88
2022-08-04T01:12:26.923Z,99675.16
2022-08-04T01:15:00.229Z,99679.78
2022-08-04T01:17:49.542Z,99670.50
2022-08-04T01:20:21.410Z,99678.06
2022-08-04T01:23:26.493Z,99674.09
2022-08-04T01:26:09.743Z,99683.16
2022-08-04T01:29:14.255Z,99684.56
2022-08-04T01:31:49.173Z,99676.78
2022-08-04T01:34:19.671Z,99679.34
2022-08-04T01:37:03.859Z,99677.22
2022-08-04T01:39:42.162Z,99669.81
2022-08-04T01:42:11.751Z,99678.47
2022-08-04T01:44:41.562Z,99677.47
2022-08-04T01:47:09.881Z,99674.50
2022-08-04T01:49:40.434Z,99675.75
2022-08-04T01:52:10.256Z,99678.47
2022-08-04T01:54:39.582Z,99682.09
2022-08-04T01:57:37.521Z,99678.69
2022-08-04T01:59:58.577Z,99683.53
2022-08-04T02:02:26.243Z,99670.03
2022-08-04T02:04:54.162Z,99671.53
2022-08-04T02:07:28.682Z,99674.88
2022-08-04T02:10:08.598Z,99674.03
2022-08-04T02:13:05.015Z,99669.59
2022-08-04T02:15:57.456Z,99677.41
2022-08-04T02:18:30.101Z,99668.56
2022-08-04T02:21:02.505Z,99672.38
2022-08-04T02:23:41.079Z,99667.31
2022-08-04T02:26:23.187Z,99667.34
2022-08-04T02:29:08.831Z,99665.63
2022-08-04T02:31:47.519Z,99668.75
2022-08-04T02:34:42.687Z,99667.94
2022-08-04T02:37:11.802Z,99663.06
2022-08-04T02:39:49.255Z,99662.03
2022-08-04T02:42:17.933Z,99666.44
2022-08-04T02:44:51.669Z,99665.31
2022-08-04T02:47:21.795Z,99663.44
2022-08-04T02:49:51.298Z,99664.22
2022-08-04T02:52:20.363Z,99658.47
2022-08-04T02:54:50.987Z,99661.22
2022-08-04T02:57:20.122Z,99654.91
2022-08-04T03:00:15.388Z,99657.19
2022-08-04T03:03:06.249Z,99651.69
2022-08-04T03:05:54.158Z,99661.38
2022-08-04T03:08:31.754Z,99662.97
2022-08-04T03:11:43.384Z,99656.72
2022-08-04T03:14:32.839Z,99664.94
2022-08-04T03:17:29.412Z,99670.66
2022-08-04T03:20:18.033Z,99661.41
2022-08-04T03:23:13.382Z,99666.25
2022-08-04T03:26:08.309Z,99659.47
2022-08-04T03:28:41.784Z,99663.63
2022-08-04T03:31:30.961Z,99661.59
2022-08-04T03:34:13.110Z,99663.22
2022-08-04T03:36:55.402Z,99663.00
2022-08-04T03:39:32.255Z,99672.09
2022-08-04T03:42:24.784Z,99668.91
2022-08-04T03:45:28.810Z,99665.87
2022-08-04T03:48:23.554Z,99669.50
2022-08-04T03:51:39.091Z,99675.78
2022-08-04T03:54:23.329Z,99669.41
2022-08-04T03:57:09.404Z,99677.97
2022-08-04T04:00:14.606Z,99678.28
2022-08-04T04:02:59.043Z,99682.53
2022-08-04T04:05:59.983Z,99685.06
2022-08-04T04:08:49.741Z,99676.13
2022-08-04T04:11:35.539Z,99682.22
2022-08-04T04:14:29.128Z,99682.22
2022-08-04T04:17:33.616Z,99686.56
2022-08-04T04:20:20.063Z,99682.00
2022-08-04T04:23:05.942Z,99677.00
2022-08-04T04:25:42.409Z,99680.09
2022-08-04T04:28:45.764Z,99689.94
2022-08-04T04:31:36.515Z,99684.41
2022-08-04T04:34:19.141Z,99683.81
2022-08-04T04:37:06.251Z,99676.00
2022-08-04T04:39:56.502Z,99690.28
2022-08-04T04:42:36.502Z,99689.41
2022-08-04T04:45:25.926Z,99698.25
2022-08-04T04:48:10.807Z,99692.53
2022-08-04T04:50:52.228Z,99697.66
2022-08-04T04:53:23.485Z,99692.03
2022-08-04T04:56:00.615Z,99689.22
2022-08-04T04:58:32.067Z,99697.97
2022-08-04T05:01:18.373Z,99697.75
2022-08-04T05:03:57.075Z,99698.41
2022-08-04T05:06:39.815Z,99694.84
2022-08-04T05:09:07.489Z,99698.94
2022-08-04T05:11:51.129Z,99702.69
2022-08-04T05:14:41.200Z,99704.75
2022-08-04T05:17:22.271Z,99704.03
2022-08-04T05:19:52.859Z,99709.69
2022-08-04T05:22:30.024Z,99708.31
2022-08-04T05:25:07.500Z,99709.94
2022-08-04T05:27:40.178Z,99710.38
2022-08-04T05:30:09.321Z,99717.47
2022-08-04T05:32:50.898Z,99720.59
2022-08-04T05:35:47.904Z,99718.56
2022-08-04T05:38:19.266Z,99720.50
2022-08-04T05:40:47.639Z,99719.41
2022-08-04T05:43:16.156Z,99719.66
2022-08-04T05:45:44.812Z,99712.59
2022-08-04T05:48:12.770Z,99715.22
2022-08-04T05:50:40.758Z,99728.09
2022-08-04T05:53:09.966Z,99724.19
2022-08-04T05:55:56.682Z,99729.66
2022-08-04T05:58:25.568Z,99728.47
2022-08-04T06:00:54.035Z,99733.28
2022-08-04T06:03:22.650Z,99725.94
2022-08-04T06:05:50.229Z,99727.63
2022-08-04T06:08:17.969Z,99731.72
2022-08-04T06:10:47.152Z,99727.97
2022-08-04T06:13:49.730Z,99731.34
2022-08-04T06:16:06.698Z,99736.03
2022-08-04T06:20:02.635Z,99735.38
2022-08-04T06:21:27.219Z,99729.03
2022-08-04T06:24:01.046Z,99734.59
2022-08-04T06:26:34.014Z,99735.38
2022-08-04T06:29:03.256Z,99727.50
2022-08-04T06:32:30.932Z,99728.91
2022-08-04T06:34:31.626Z,99733.22
2022-08-04T06:36:59.754Z,99738.31
2022-08-04T06:39:28.185Z,99741.25
2022-08-04T06:42:21.390Z,99736.84
2022-08-04T06:44:49.745Z,99729.56
2022-08-04T06:47:19.666Z,99729.28
2022-08-04T06:51:23.298Z,99730.19
2022-08-04T06:52:38.962Z,99729.72
2022-08-04T06:55:08.132Z,99732.97
2022-08-04T06:57:36.611Z,99735.31
2022-08-04T07:00:11.333Z,99724.00
2022-08-04T07:02:46.098Z,99733.47
2022-08-04T07:05:14.598Z,99730.66
2022-08-04T07:07:56.576Z,99729.03
2022-08-04T07:10:28.200Z,99730.84
2022-08-04T07:13:01.559Z,99730.53
2022-08-04T07:15:29.986Z,99735.00
2022-08-04T07:18:03.634Z,99735.44
2022-08-04T07:20:35.694Z,99736.97
2022-08-04T07:23:04.886Z,99730.88
2022-08-04T07:25:58.505Z,99733.94
2022-08-04T07:28:24.565Z,99738.88
2022-08-04T07:30:54.038Z,99729.88
2022-08-04T07:33:22.581Z,99733.06
2022-08-04T07:36:04.975Z,99726.25
2022-08-04T07:38:48.634Z,99729.50
2022-08-04T07:41:39.343Z,99727.63
2022-08-04T07:44:07.927Z,99720.56
2022-08-04T07:46:38.299Z,99721.75
2022-08-04T07:49:06.314Z,99726.34
2022-08-04T07:51:36.421Z,99716.22
2022-08-04T07:54:05.457Z,99715.16
2022-08-04T07:56:33.841Z,99718.66
2022-08-04T07:59:02.808Z,99713.06
2022-08-04T08:01:30.768Z,99716.84
2022-08-04T08:04:00.679Z,99714.44
2022-08-04T08:06:33.273Z,99715.78
2022-08-04T08:09:14.715Z,99715.78
2022-08-04T08:12:36.166Z,99716.53
2022-08-04T08:14:31.739Z,99724.13
2022-08-04T08:17:02.467Z,99718.06
2022-08-04T08:19:34.757Z,99709.69
2022-08-04T08:22:03.099Z,99715.31
2022-08-04T08:24:33.827Z,99713.03
2022-08-04T08:27:04.367Z,99718.03
2022-08-04T08:29:34.143Z,99714.62
2022-08-04T08:32:08.325Z,99717.81
2022-08-04T08:34:38.490Z,99717.09
2022-08-04T08:37:35.134Z,99713.47
2022-08-04T08:40:40.215Z,99710.50
2022-08-04T08:44:04.524Z,99711.09
2022-08-04T08:46:48.379Z,99715.66
2022-08-04T08:50:01.091Z,99721.00
2022-08-04T08:53:01.123Z,99710.13
2022-08-04T08:55:37.106Z,99708.81
2022-08-04T08:58:23.710Z,99714.13
2022-08-04T09:01:07.126Z,99713.78
2022-08-04T09:04:23.578Z,99703.84
2022-08-04T09:07:06.976Z,99707.03
2022-08-04T09:10:03.085Z,99701.66
2022-08-04T09:12:41.761Z,99710.69
2022-08-04T09:15:28.977Z,99714.19
2022-08-04T09:18:22.544Z,99714.19
2022-08-04T09:20:56.925Z,99711.06
2022-08-04T09:23:24.736Z,99710.13
2022-08-04T09:26:09.043Z,99708.47
2022-08-04T09:29:05.992Z,99702.66
2022-08-04T09:31:49.166Z,99702.47
2022-08-04T09:35:03.096Z,99700.88
2022-08-04T09:37:58.529Z,99703.34
2022-08-04T09:40:35.665Z,99709.53
2022-08-04T09:44:40.798Z,99708.31
2022-08-04T09:47:06.627Z,99709.91
2022-08-04T09:49:50.782Z,99696.25
2022-08-04T09:52:28.782Z,99696.87
2022-08-04T09:55:09.758Z,99689.56
2022-08-04T09:57:40.999Z,99686.97
2022-08-04T10:00:10.109Z,99681.84
2022-08-04T10:02:57.154Z,99677.88
2022-08-04T10:05:50.073Z,99676.81
2022-08-04T10:08:52.053Z,99679.09
2022-08-04T10:12:00.351Z,99674.19
2022-08-04T10:14:46.758Z,99681.97
2022-08-04T10:17:51.951Z,99675.63
2022-08-04T10:20:33.979Z,99673.09
2022-08-04T10:23:26.752Z,99665.59
2022-08-04T10:26:08.050Z,99666.66
2022-08-04T10:28:44.293Z,99660.28
2022-08-04T10:31:19.897Z,99658.34
2022-08-04T10:34:12.138Z,99659.75
2022-08-04T10:36:55.908Z,99664.75
2022-08-04T10:40:36.443Z,99659.13
2022-08-04T10:43:22.050Z,99653.91
2022-08-04T10:45:58.814Z,99652.66
2022-08-04T10:48:45.702Z,99647.06
2022-08-04T10:51:20.259Z,99640.44
2022-08-04T10:53:51.843Z,99649.75
2022-08-04T10:56:30.195Z,99646.12
2022-08-04T10:59:02.876Z,99637.97
2022-08-04T11:02:00.078Z,99632.06
2022-08-04T11:04:46.833Z,99630.84
2022-08-04T11:07:15.518Z,99626.84
2022-08-04T11:09:44.687Z,99630.03
2022-08-04T11:12:26.053Z,99624.91
2022-08-04T11:14:59.926Z,99627.87
2022-08-04T11:17:33.763Z,99633.84
2022-08-04T11:20:35.211Z,99623.88
2022-08-04T11:23:05.918Z,99623.16
2022-08-04T11:25:55.474Z,99626.44
2022-08-04T11:29:03.743Z,99627.44
2022-08-04T11:31:36.001Z,99622.66
2022-08-04T11:34:12.737Z,99617.56
2022-08-04T11:36:52.612Z,99622.22
2022-08-04T11:39:34.194Z,99615.16
2022-08-04T11:42:10.938Z,99615.41
2022-08-04T11:44:44.443Z,99611.44
2022-08-04T11:47:24.650Z,99605.78
2022-08-04T11:50:20.423Z,99601.72
2022-08-04T11:52:49.699Z,99598.06
2022-08-04T11:55:21.309Z,99595.25
2022-08-04T11:57:54.268Z,99588.78
2022-08-04T12:00:22.739Z,99583.78
2022-08-04T12:03:20.177Z,99579.03
2022-08-04T12:06:20.967Z,99588.28
2022-08-04T12:09:01.513Z,99583.91
2022-08-04T12:11:46.981Z,99575.84
2022-08-04T12:14:35.100Z,99576.25
2022-08-04T12:17:04.840Z,99572.53
2022-08-04T12:20:04.491Z,99571.84
2022-08-04T12:22:43.847Z,99573.00
2022-08-04T12:25:20.471Z,99569.78
2022-08-04T12:27:52.182Z,99577.09
2022-08-04T12:30:59.579Z,99572.84
2022-08-04T12:33:17.672Z,99578.09
2022-08-04T12:36:10.422Z,99569.06
2022-08-04T12:38:47.451Z,99565.63
2022-08-04T12:41:19.363Z,99558.78
2022-08-04T12:43:47.477Z,99553.19
2022-08-04T12:46:24.743Z,99552.41
2022-08-04T12:48:53.888Z,99549.38
2022-08-04T12:52:06.312Z,99545.19
2022-08-04T12:54:12.217Z,99544.34
2022-08-04T12:56:40.953Z,99543.53
2022-08-04T12:59:12.494Z,99545.97
2022-08-04T13:02:10.154Z,99542.72
2022-08-04T13:04:38.303Z,99549.09
2022-08-04T13:07:12.421Z,99547.97
2022-08-04T13:09:40.658Z,99541.81
2022-08-04T13:12:20.912Z,99546.56
2022-08-04T13:14:51.466Z,99543.81
2022-08-04T13:17:20.015Z,99538.19
2022-08-04T13:19:54.980Z,99538.47
2022-08-04T13:22:28.299Z,99543.81
2022-08-04T13:26:41.451Z,99532.94
2022-08-04T13:27:48.716Z,99529.59
2022-08-04T13:30:23.600Z,99531.28
2022-08-04T13:32:59.173Z,99529.84
2022-08-04T13:35:54.633Z,99526.78
2022-08-04T13:38:19.705Z,99518.75
2022-08-04T13:40:55.595Z,99515.47
2022-08-04T13:44:16.448Z,99514.31
2022-08-04T13:46:28.167Z,99505.44
2022-08-04T13:51:59.856Z,99504.63
2022-08-04T13:54:36.936Z,99499.06
2022-08-04T13:57:24.364Z,99494.28
2022-08-04T13:59:54.428Z,99501.31
2022-08-04T14:02:50.520Z,99496.25
2022-08-04T14:05:31.241Z,99488.66
2022-08-04T14:08:08.565Z,99487.47
2022-08-04T14:10:37.256Z,99479.66
2022-08-04T14:13:06.706Z,99482.37
2022-08-04T14:16:01.205Z,99488.69
2022-08-04T14:18:23.798Z,99470.47
2022-08-04T14:21:11.471Z,99473.03
2022-08-04T14:23:49.837Z,99484.00
2022-08-04T14:26:31.412Z,99476.47
2022-08-04T14:29:27.099Z,99472.97
2022-08-04T14:32:05.978Z,99472.94
2022-08-04T14:34:41.758Z,99470.13
2022-08-04T14:37:17.436Z,99469.53
2022-08-04T14:40:19.252Z,99460.41
2022-08-04T14:42:55.800Z,99463.97
2022-08-04T14:45:54.949Z,99472.06
2022-08-04T14:48:23.353Z,99469.81
2022-08-04T14:50:52.592Z,99466.66
2022-08-04T14:53:22.603Z,99470.09
2022-08-04T14:55:57.003Z,99470.91
2022-08-04T14:58:35.529Z,99470.59
2022-08-04T15:01:10.250Z,99453.78
2022-08-04T15:03:50.379Z,99455.19
2022-08-04T15:06:27.151Z,99457.25
2022-08-04T15:08:57.995Z,99463.97
2022-08-04T15:11:26.415Z,99460.37
2022-08-04T15:13:55.468Z,99458.25
2022-08-04T15:16:25.529Z,99452.69
2022-08-04T15:18:54.555Z,99456.84
2022-08-04T15:21:23.875Z,99454.69
2022-08-04T15:23:51.950Z,99458.03
2022-08-04T15:26:28.109Z,99454.34
2022-08-04T15:29:02.218Z,99450.72
2022-08-04T15:32:08.500Z,99450.66
2022-08-04T15:34:24.015Z,99443.50
2022-08-04T15:36:58.043Z,99448.25
2022-08-04T15:39:55.587Z,99444.97
2022-08-04T15:42:34.259Z,99443.75
2022-08-04T15:45:05.530Z,99446.66
2022-08-04T15:47:33.132Z,99444.87
2022-08-04T15:50:11.857Z,99448.66
2022-08-04T15:53:10.329Z,99440.78
2022-08-04T15:55:42.842Z,99430.09
2022-08-04T15:58:13.354Z,99434.72
2022-08-04T16:00:49.987Z,99428.97
2022-08-04T16:03:54.237Z,99429.09
2022-08-04T16:06:27.463Z,99428.63
2022-08-04T16:08:59.525Z,99431.72
2022-08-04T16:11:40.537Z,99429.28
2022-08-04T16:14:11.585Z,99435.69
2022-08-04T16:16:50.942Z,99434.50
2022-08-04T16:19:21.542Z,99432.22
2022-08-04T16:21:50.995Z,99435.53
2022-08-04T16:24:22.599Z,99430.22
2022-08-04T16:26:54.884Z,99427.03
2022-08-04T16:29:24.064Z,99427.38
2022-08-04T16:32:12.729Z,99423.31
2022-08-04T16:34:55.160Z,99420.06
2022-08-04T16:37:29.361Z,99421.13
2022-08-04T16:40:29.784Z,99419.97
2022-08-04T16:43:06.799Z,99419.09
2022-08-04T16:45:55.466Z,99418.53
2022-08-04T16:48:32.111Z,99418.16
2022-08-04T16:51:09.524Z,99410.50
2022-08-04T16:54:03.690Z,99412.00
2022-08-04T16:56:36.130Z,99416.56
2022-08-04T16:59:11.302Z,99418.84
2022-08-04T17:01:52.066Z,99411.31
2022-08-04T17:04:29.857Z,99417.41
2022-08-04T17:07:02.607Z,99408.81
2022-08-04T17:09:30.733Z,99405.87
2022-08-04T17:11:59.287Z,99415.84
2022-08-04T17:14:30.836Z,99415.84
2022-08-04T17:17:02.526Z,99422.81
2022-08-04T17:19:30.072Z,99423.66
2022-08-04T17:22:07.322Z,99422.81
2022-08-04T17:24:41.041Z,99427.63
2022-08-04T17:28:09.179Z,99425.91
2022-08-04T17:30:01.118Z,99423.13
2022-08-04T17:32:28.681Z,99422.59
2022-08-04T17:35:03.752Z,99419.28
2022-08-04T17:37:40.038Z,99428.75
2022-08-04T17:40:18.094Z,99426.78
2022-08-04T17:44:03.430Z,99425.12
2022-08-04T17:46:28.743Z,99427.94
2022-08-04T17:48:59.171Z,99431.56
2022-08-04T17:52:02.926Z,99427.94
2022-08-04T17:54:39.170Z,99427.66
2022-08-04T17:57:21.839Z,99427.94
2022-08-04T17:59:58.904Z,99429.31
2022-08-04T18:02:35.153Z,99427.88
2022-08-04T18:05:06.846Z,99418.16
2022-08-04T18:08:38.343Z,99423.72
2022-08-04T18:10:56.260Z,99423.44
2022-08-04T18:13:26.232Z,99418.44
2022-08-04T18:16:14.386Z,99422.59
2022-08-04T18:19:15.323Z,99419.81
2022-08-04T18:22:00.336Z,99423.13
2022-08-04T18:24:34.066Z,99423.31
2022-08-04T18:27:06.541Z,99438.63
2022-08-04T18:29:39.029Z,99434.09
2022-08-04T18:32:09.848Z,99436.91
2022-08-04T18:34:54.730Z,99440.47
2022-08-04T18:38:05.865Z,99445.78
2022-08-04T18:40:30.157Z,99440.75
2022-08-04T18:43:01.921Z,99442.97
2022-08-04T18:45:34.632Z,99454.59
2022-08-04T18:48:14.232Z,99454.31
2022-08-04T18:51:10.988Z,99456.75
2022-08-04T18:53:35.379Z,99457.78
2022-08-04T18:56:20.076Z,99454.63
2022-08-04T18:58:57.285Z,99456.53
2022-08-04T19:01:29.693Z,99469.03
2022-08-04T19:03:58.640Z,99462.53
2022-08-04T19:06:27.514Z,99464.72
2022-08-04T19:08:56.589Z,99463.84
2022-08-04T19:11:37.731Z,99469.44
2022-08-04T19:14:06.501Z,99474.38
2022-08-04T19:16:46.050Z,99473.50
2022-08-04T19:19:18.024Z,99470.34
2022-08-04T19:21:59.801Z,99477.19
2022-08-04T19:24:34.196Z,99469.41
2022-08-04T19:27:08.423Z,99475.59
2022-08-04T19:29:42.958Z,99470.13
2022-08-04T19:32:16.026Z,99469.94
2022-08-04T19:34:47.862Z,99475.47
2022-08-04T19:38:01.440Z,99473.16
2022-08-04T19:40:10.136Z,99477.00
2022-08-04T19:42:44.928Z,99476.16
2022-08-04T19:45:19.059Z,99486.28
2022-08-04T19:48:18.035Z,99480.13
2022-08-04T19:50:45.438Z,99475.44
2022-08-04T19:53:19.667Z,99479.59
2022-08-04T19:55:51.644Z,99481.09
2022-08-04T19:58:21.474Z,99479.12
2022-08-04T20:00:54.977Z,99483.81
2022-08-04T20:04:09.923Z,99485.53
2022-08-04T20:06:13.953Z,99480.78
2022-08-04T20:08:48.561Z,99487.16
2022-08-04T20:11:29.836Z,99488.06
2022-08-04T20:13:58.655Z,99487.62
2022-08-04T20:19:16.531Z,99496.06
2022-08-04T20:21:55.389Z,99487.81
2022-08-04T20:24:37.725Z,99486.06
2022-08-04T20:27:14.921Z,99496.53
2022-08-04T20:29:49.429Z,99494.34
2022-08-04T20:32:26.365Z,99492.19
2022-08-04T20:34:56.153Z,99500.03
2022-08-04T20:37:25.900Z,99501.34
2022-08-04T20:40:20.760Z,99496.50
2022-08-04T20:42:57.190Z,99493.56
2022-08-04T20:45:56.708Z,99499.00
2022-08-04T20:48:14.739Z,99502.25
2022-08-04T20:50:47.501Z,99505.00
2022-08-04T20:53:16.614Z,99507.06
2022-08-04T20:55:54.585Z,99503.69
2022-08-04T20:58:27.601Z,99501.53
2022-08-04T21:00:56.026Z,99506.31
2022-08-04T21:03:49.625Z,99510.50
2022-08-04T21:06:17.303Z,99510.84
2022-08-04T21:08:57.223Z,99506.41
2022-08-04T21:11:32.717Z,99511.81
2022-08-04T21:14:01.169Z,99507.50
2022-08-04T21:16:55.311Z,99512.78
2022-08-04T21:19:28.034Z,99511.94
2022-08-04T21:21:55.907Z,99523.66
2022-08-04T21:24:26.082Z,99522.97
2022-08-04T21:27:04.061Z,99522.59
2022-08-04T21:29:35.656Z,99516.47
2022-08-04T21:32:08.665Z,99532.25
2022-08-04T21:34:40.542Z,99529.50
2022-08-04T21:37:11.251Z,99525.38
2022-08-04T21:39:50.177Z,99523.81
2022-08-04T21:42:28.955Z,99523.28
2022-08-04T21:45:05.349Z,99533.31
2022-08-04T21:47:46.518Z,99528.47
2022-08-04T21:50:20.413Z,99534.84
2022-08-04T21:52:49.724Z,99532.19
2022-08-04T21:55:19.043Z,99528.59
2022-08-04T21:57:51.509Z,99536.87
2022-08-04T22:00:21.310Z,99535.63
2022-08-04T22:02:53.903Z,99538.53
2022-08-04T22:05:24.788Z,99533.03
2022-08-04T22:07:53.890Z,99536.09
2022-08-04T22:13:22.742Z,99542.28
2022-08-04T22:16:04.496Z,99541.13
2022-08-04T22:18:36.869Z,99543.97
2022-08-04T22:21:11.809Z,99551.66
2022-08-04T22:23:45.371Z,99547.94
2022-08-04T22:26:20.156Z,99554.31
2022-08-04T22:28:56.771Z,99550.81
2022-08-04T22:31:26.581Z,99556.59
2022-08-04T22:34:17.663Z,99553.97
2022-08-04T22:36:53.347Z,99552.66
2022-08-04T22:39:27.602Z,99552.25
2022-08-04T22:42:03.163Z,99548.22
2022-08-04T22:44:34.828Z,99555.16
2022-08-04T22:47:05.882Z,99551.47
2022-08-04T22:49:35.989Z,99554.78
2022-08-04T22:52:09.875Z,99555.16
2022-08-04T22:54:40.590Z,99552.13
2022-08-04T22:57:11.452Z,99553.22
2022-08-04T22:59:43.406Z,99550.56
2022-08-04T23:02:11.314Z,99546.53
2022-08-04T23:04:44.870Z,99545.91
2022-08-04T23:07:18.005Z,99537.38
2022-08-04T23:09:51.753Z,99539.66
2022-08-04T23:12:25.383Z,99542.53
2022-08-04T23:14:55.067Z,99538.47
2022-08-04T23:17:27.927Z,99545.69
2022-08-04T23:19:59.283Z,99541.53
2022-08-04T23:22:41.069Z,99545.59
2022-08-04T23:25:15.302Z,99533.97
2022-08-04T23:27:52.439Z,99538.03
2022-08-04T23:30:21.597Z,99538.13
2022-08-04T23:32:58.168Z,99538.13
2022-08-04T23:35:28.409Z,99530.69
2022-08-04T23:37:59.807Z,99536.81
2022-08-04T23:40:49.951Z,99542.69
2022-08-04T23:43:20.800Z,99535.78
2022-08-04T23:46:02.005Z,99537.28
2022-08-04T23:48:37.140Z,99539.41
2022-08-04T23:51:14.318Z,99534.56
2022-08-04T23:54:02.447Z,99535.03
2022-08-04T23:56:34.902Z,99533.38
2022-08-04T23:59:04.997Z,99535.84
